Time;durP1;ratioP1;P1;durP2;ratioP2;P2;SDS_P1;SDS_P2;PMS_P1;PMS_P2;Temp;Humidity;BMP_temperature;BMP_pressure;BME280_temperature;BME280_humidity;BME280_pressure;Samples;Min_cycle;Max_cycle;Signal;HPM_P1;HPM_P2
2022/02/25 00:19:36;;;;;;;9.55;8.57;;;;;;;;;;5151485;27;20635;-62
2022/02/25 00:22:03;;;;;;;9.15;8.25;;;;;;;;;;5177303;27;20116;-64
2022/02/25 00:24:29;;;;;;;8.82;7.93;;;;;;;;;;5180195;27;20497;-64
2022/02/25 00:26:55;;;;;;;8.20;7.40;;;;;;;;;;5200763;27;20085;-67
2022/02/25 00:29:21;;;;;;;9.38;8.48;;;;;;;;;;5182111;27;20165;-67
2022/02/25 00:31:47;;;;;;;9.25;8.35;;;;;;;;;;5182124;27;20089;-63
2022/02/25 00:34:13;;;;;;;8.77;7.70;;;;;;;;;;5201088;27;20099;-64
2022/02/25 00:36:40;;;;;;;8.07;7.28;;;;;;;;;;5201116;27;20081;-65
2022/02/25 00:39:06;;;;;;;8.25;7.45;;;;;;;;;;5201131;27;20085;-68
2022/02/25 00:41:32;;;;;;;9.10;7.35;;;;;;;;;;5200970;27;20393;-68
2022/02/25 00:43:59;;;;;;;8.48;7.60;;;;;;;;;;5182417;27;20179;-70
2022/02/25 00:46:25;;;;;;;8.80;6.95;;;;;;;;;;5201035;27;20231;-70
2022/02/25 00:48:51;;;;;;;7.90;6.40;;;;;;;;;;5181850;27;20072;-65
2022/02/25 00:51:18;;;;;;;7.10;6.40;;;;;;;;;;5201019;27;20078;-65
2022/02/25 00:53:44;;;;;;;8.73;6.97;;;;;;;;;;5201137;27;20180;-64
2022/02/25 00:56:11;;;;;;;9.50;7.47;;;;;;;;;;5201147;27;20089;-65
2022/02/25 00:58:37;;;;;;;8.82;7.93;;;;;;;;;;5201168;27;20081;-64
2022/02/25 01:01:03;;;;;;;8.55;7.72;;;;;;;;;;5201343;27;20081;-66
2022/02/25 01:03:29;;;;;;;8.50;7.60;;;;;;;;;;5201164;27;20497;-65
2022/02/25 01:05:55;;;;;;;8.60;7.80;;;;;;;;;;5201570;27;20086;-65
2022/02/25 01:08:21;;;;;;;9.18;7.80;;;;;;;;;;5201052;27;20082;-64
2022/02/25 01:10:47;;;;;;;9.70;7.20;;;;;;;;;;5201212;27;20116;-65
2022/02/25 01:13:13;;;;;;;8.85;8.05;;;;;;;;;;5201288;27;20112;-64
2022/02/25 01:15:40;;;;;;;8.23;7.20;;;;;;;;;;5182141;27;20088;-65
2022/02/25 01:18:06;;;;;;;9.35;8.30;;;;;;;;;;5203511;27;20076;-65
2022/02/25 01:20:32;;;;;;;9.18;7.15;;;;;;;;;;5202886;27;20105;-66
2022/02/25 01:22:58;;;;;;;8.10;7.30;;;;;;;;;;5203067;27;20089;-65
2022/02/25 01:25:25;;;;;;;8.07;7.28;;;;;;;;;;5182930;27;20092;-62
2022/02/25 01:27:51;;;;;;;8.65;7.72;;;;;;;;;;5201462;27;20105;-65
2022/02/25 01:30:18;;;;;;;8.73;7.85;;;;;;;;;;5200816;27;20073;-65
2022/02/25 01:32:44;;;;;;;9.23;8.32;;;;;;;;;;5199117;27;20491;-64
2022/02/25 01:35:10;;;;;;;9.90;8.63;;;;;;;;;;5199023;27;20072;-63
2022/02/25 01:37:37;;;;;;;9.50;8.60;;;;;;;;;;5200788;27;20077;-64
2022/02/25 01:40:03;;;;;;;9.73;8.68;;;;;;;;;;5200707;27;20069;-64
2022/02/25 01:42:29;;;;;;;13.25;8.93;;;;;;;;;;5200850;27;20075;-64
2022/02/25 01:44:55;;;;;;;9.23;8.35;;;;;;;;;;5200684;27;20421;-64
2022/02/25 01:47:21;;;;;;;9.80;8.80;;;;;;;;;;5200735;27;20073;-64
2022/02/25 01:49:47;;;;;;;9.80;8.85;;;;;;;;;;5200669;27;20167;-61
2022/02/25 01:52:16;;;;;;;10.18;9.18;;;;;;;;;;5200613;27;20069;-63
2022/02/25 01:54:46;;;;;;;9.38;8.40;;;;;;;;;;5200644;27;20066;-64
2022/02/25 01:57:14;;;;;;;9.52;8.25;;;;;;;;;;5200736;27;20155;-64
2022/02/25 01:59:41;;;;;;;8.25;7.45;;;;;;;;;;5200265;27;20089;-64
2022/02/25 02:02:09;;;;;;;8.45;7.65;;;;;;;;;;5200605;27;20509;-64
2022/02/25 02:04:37;;;;;;;10.07;9.02;;;;;;;;;;5200475;27;20089;-64
2022/02/25 02:07:04;;;;;;;9.32;7.85;;;;;;;;;;5181371;27;20124;-64
2022/02/25 02:09:30;;;;;;;9.77;8.77;;;;;;;;;;5200587;27;20104;-64
2022/02/25 02:11:56;;;;;;;8.23;7.43;;;;;;;;;;5181462;27;20100;-63
2022/02/25 02:14:24;;;;;;;7.72;6.53;;;;;;;;;;5200764;27;20092;-64
2022/02/25 02:16:53;;;;;;;6.68;6.07;;;;;;;;;;5181472;27;20093;-64
2022/02/25 02:19:19;;;;;;;8.40;7.12;;;;;;;;;;5200397;27;20066;-65
2022/02/25 02:21:48;;;;;;;8.50;7.53;;;;;;;;;;5181254;27;20065;-64
2022/02/25 02:24:15;;;;;;;8.40;7.57;;;;;;;;;;5200488;27;20186;-64
2022/02/25 02:26:42;;;;;;;7.37;6.68;;;;;;;;;;5181314;27;20072;-65
2022/02/25 02:29:09;;;;;;;8.95;8.05;;;;;;;;;;5181346;27;20073;-65
2022/02/25 02:31:36;;;;;;;8.55;7.72;;;;;;;;;;5181544;27;20174;-64
2022/02/25 02:34:03;;;;;;;8.95;8.05;;;;;;;;;;5181493;27;20472;-64
2022/02/25 02:36:30;;;;;;;8.02;7.22;;;;;;;;;;5200254;27;20065;-64
2022/02/25 02:38:56;;;;;;;8.15;7.35;;;;;;;;;;5181558;27;20078;-66
2022/02/25 02:41:23;;;;;;;8.77;7.97;;;;;;;;;;5200360;27;20555;-64
2022/02/25 02:43:49;;;;;;;8.43;7.62;;;;;;;;;;5200379;27;20386;-65
2022/02/25 02:46:15;;;;;;;7.95;7.15;;;;;;;;;;5200630;27;20163;-67
2022/02/25 02:48:42;;;;;;;7.87;7.07;;;;;;;;;;5164093;27;20137;-67
2022/02/25 02:51:09;;;;;;;8.45;7.65;;;;;;;;;;5163729;27;20093;-69
2022/02/25 02:53:35;;;;;;;8.93;8.10;;;;;;;;;;5181241;27;20069;-67
2022/02/25 02:56:02;;;;;;;10.38;8.75;;;;;;;;;;5200367;27;20550;-66
2022/02/25 02:58:28;;;;;;;9.98;8.98;;;;;;;;;;5200252;27;20066;-66
2022/02/25 03:00:54;;;;;;;9.38;8.48;;;;;;;;;;5200177;27;20097;-67
2022/02/25 03:03:20;;;;;;;10.38;9.38;;;;;;;;;;5200329;27;20174;-66
2022/02/25 03:05:47;;;;;;;10.30;8.45;;;;;;;;;;5181167;27;20073;-65
2022/02/25 03:08:14;;;;;;;9.55;8.65;;;;;;;;;;5200380;27;20097;-65
2022/02/25 03:10:41;;;;;;;9.32;8.43;;;;;;;;;;5200276;27;20066;-66
2022/02/25 03:13:08;;;;;;;11.40;9.38;;;;;;;;;;5181156;27;20085;-66
2022/02/25 03:15:35;;;;;;;10.68;9.02;;;;;;;;;;5200368;27;20519;-66
2022/02/25 03:18:01;;;;;;;11.07;9.60;;;;;;;;;;5181232;27;20086;-65
2022/02/25 03:20:28;;;;;;;10.50;9.40;;;;;;;;;;5200013;27;20065;-65
2022/02/25 03:22:55;;;;;;;11.80;10.30;;;;;;;;;;5200260;27;20081;-68
2022/02/25 03:25:22;;;;;;;11.10;10.00;;;;;;;;;;5200060;27;20085;-65
2022/02/25 03:27:48;;;;;;;11.25;10.07;;;;;;;;;;5200270;27;20066;-64
2022/02/25 03:30:16;;;;;;;12.57;11.27;;;;;;;;;;5191542;27;20163;-65
2022/02/25 03:32:45;;;;;;;12.52;11.23;;;;;;;;;;5200260;27;20097;-67
2022/02/25 03:35:13;;;;;;;13.18;11.65;;;;;;;;;;5181709;27;20074;-65
2022/02/25 03:37:40;;;;;;;13.10;11.80;;;;;;;;;;5200223;27;20093;-64
2022/02/25 03:40:07;;;;;;;12.45;10.98;;;;;;;;;;5201485;27;20057;-71
2022/02/25 03:42:34;;;;;;;13.98;12.30;;;;;;;;;;5201655;27;20123;-72
2022/02/25 03:45:00;;;;;;;12.63;11.00;;;;;;;;;;5201926;27;20163;-72
2022/02/25 03:47:26;;;;;;;13.15;11.85;;;;;;;;;;5201659;27;20073;-68
2022/02/25 03:49:53;;;;;;;11.95;10.73;;;;;;;;;;5182082;27;20589;-66
2022/02/25 03:52:19;;;;;;;13.20;11.80;;;;;;;;;;5201482;27;20488;-67
2022/02/25 03:54:45;;;;;;;12.07;10.07;;;;;;;;;;5201294;27;20081;-66
2022/02/25 03:57:12;;;;;;;13.32;10.93;;;;;;;;;;5201314;27;20444;-65
2022/02/25 03:59:38;;;;;;;11.65;10.43;;;;;;;;;;5201255;27;20078;-64
2022/02/25 04:02:04;;;;;;;12.02;10.82;;;;;;;;;;5182369;27;20382;-65
2022/02/25 04:04:30;;;;;;;11.02;9.80;;;;;;;;;;5201350;27;20066;-64
2022/02/25 04:06:56;;;;;;;11.80;10.63;;;;;;;;;;5201415;27;20543;-66
2022/02/25 04:09:23;;;;;;;10.50;9.50;;;;;;;;;;5182098;27;20088;-65
2022/02/25 04:11:50;;;;;;;12.07;10.88;;;;;;;;;;5201364;27;20074;-64
2022/02/25 04:14:19;;;;;;;12.48;10.90;;;;;;;;;;5201351;27;20104;-67
2022/02/25 04:16:48;;;;;;;12.48;10.95;;;;;;;;;;5201391;27;20070;-67
2022/02/25 04:19:15;;;;;;;13.07;10.27;;;;;;;;;;5192638;27;20077;-66
2022/02/25 04:21:42;;;;;;;12.50;11.23;;;;;;;;;;5201117;27;20484;-67
2022/02/25 04:24:08;;;;;;;12.45;11.18;;;;;;;;;;5201309;27;20081;-66
2022/02/25 04:26:35;;;;;;;13.70;11.20;;;;;;;;;;5201154;27;20089;-66
2022/02/25 04:29:01;;;;;;;13.45;11.40;;;;;;;;;;5201374;27;20110;-66
2022/02/25 04:31:27;;;;;;;13.60;12.20;;;;;;;;;;5201492;27;20401;-65
2022/02/25 04:33:53;;;;;;;13.75;12.23;;;;;;;;;;5201178;27;20178;-66
2022/02/25 04:36:22;;;;;;;16.33;12.55;;;;;;;;;;5164335;27;20507;-66
2022/02/25 04:38:49;;;;;;;13.57;12.20;;;;;;;;;;5182452;27;20082;-66
2022/02/25 04:41:16;;;;;;;14.20;12.70;;;;;;;;;;5181751;27;20097;-66
2022/02/25 04:43:42;;;;;;;12.55;10.57;;;;;;;;;;5182200;27;20066;-67
2022/02/25 04:46:16;;;;;;;10.38;9.38;;;;;;;;;;5201150;27;20066;-65
2022/02/25 04:48:42;;;;;;;11.85;10.70;;;;;;;;;;5201183;27;20082;-65
2022/02/25 04:51:08;;;;;;;12.55;10.32;;;;;;;;;;5200898;27;20093;-66
2022/02/25 04:53:34;;;;;;;10.55;9.55;;;;;;;;;;5201377;27;20077;-66
2022/02/25 04:56:00;;;;;;;11.07;9.98;;;;;;;;;;5201491;27;20184;-67
2022/02/25 04:58:26;;;;;;;11.05;9.85;;;;;;;;;;5201337;27;20074;-65
2022/02/25 05:00:52;;;;;;;12.45;10.90;;;;;;;;;;5200782;27;20194;-65
2022/02/25 05:03:21;;;;;;;11.25;9.93;;;;;;;;;;5201004;27;20081;-65
2022/02/25 05:05:47;;;;;;;10.35;9.35;;;;;;;;;;5200907;27;20089;-66
2022/02/25 05:08:13;;;;;;;10.73;9.73;;;;;;;;;;5201052;27;20161;-66
2022/02/25 05:10:39;;;;;;;11.18;10.07;;;;;;;;;;5201117;27;20090;-66
2022/02/25 05:13:05;;;;;;;10.15;9.13;;;;;;;;;;5200952;27;20078;-66
2022/02/25 05:21:00;;;;;;;11.10;9.98;;;;;;;;;;5200882;27;20085;-66
2022/02/25 05:23:26;;;;;;;11.25;10.07;;;;;;;;;;5200785;27;20078;-65
2022/02/25 05:25:52;;;;;;;11.05;10.02;;;;;;;;;;5200860;27;20088;-67
2022/02/25 05:28:18;;;;;;;10.40;9.50;;;;;;;;;;5200938;27;20100;-66
2022/02/25 05:30:45;;;;;;;11.20;10.10;;;;;;;;;;5181502;27;20088;-67
2022/02/25 05:33:11;;;;;;;11.70;10.23;;;;;;;;;;5200795;27;20077;-67
2022/02/25 05:35:38;;;;;;;11.68;10.48;;;;;;;;;;5200930;27;20093;-66
2022/02/25 05:38:05;;;;;;;11.60;10.40;;;;;;;;;;5200785;27;20521;-67
2022/02/25 05:40:31;;;;;;;12.20;11.00;;;;;;;;;;5200344;27;20082;-67
2022/02/25 05:42:57;;;;;;;12.05;10.85;;;;;;;;;;5164176;27;20521;-67
2022/02/25 05:45:24;;;;;;;12.75;11.45;;;;;;;;;;5200948;27;20141;-67
2022/02/25 05:47:50;;;;;;;15.98;14.27;;;;;;;;;;5200844;27;20176;-66
2022/02/25 05:50:17;;;;;;;15.48;13.90;;;;;;;;;;5181391;27;20474;-67
2022/02/25 05:52:44;;;;;;;16.67;14.82;;;;;;;;;;5200646;27;20519;-66
2022/02/25 05:55:11;;;;;;;16.27;14.57;;;;;;;;;;5200969;27;20145;-67
2022/02/25 05:57:37;;;;;;;16.50;14.40;;;;;;;;;;5201013;27;20062;-67
2022/02/25 06:00:06;;;;;;;17.67;15.10;;;;;;;;;;5200534;27;20070;-67
2022/02/25 06:02:33;;;;;;;14.57;13.00;;;;;;;;;;5200554;27;20073;-67
2022/02/25 06:05:00;;;;;;;18.02;13.50;;;;;;;;;;5200614;27;20108;-67
2022/02/25 06:07:26;;;;;;;13.60;12.10;;;;;;;;;;5200942;27;20074;-68
2022/02/25 06:09:52;;;;;;;14.35;12.85;;;;;;;;;;5200668;27;20330;-66
2022/02/25 06:12:18;;;;;;;13.23;11.90;;;;;;;;;;5200631;27;20160;-67
2022/02/25 06:14:44;;;;;;;14.02;12.55;;;;;;;;;;5200478;27;20073;-67
2022/02/25 06:17:10;;;;;;;14.90;13.23;;;;;;;;;;5181548;27;20081;-66
2022/02/25 06:19:37;;;;;;;14.32;12.82;;;;;;;;;;5181478;27;20116;-66
2022/02/25 06:22:03;;;;;;;15.07;13.50;;;;;;;;;;5181456;27;20190;-66
2022/02/25 06:24:29;;;;;;;17.75;15.93;;;;;;;;;;5200704;27;20105;-66
2022/02/25 06:26:55;;;;;;;16.23;14.52;;;;;;;;;;5200907;27;20077;-65
2022/02/25 06:29:21;;;;;;;20.62;15.20;;;;;;;;;;5181592;27;20508;-65
2022/02/25 06:31:47;;;;;;;17.87;15.48;;;;;;;;;;5200845;27;20057;-65
2022/02/25 06:34:13;;;;;;;21.87;16.62;;;;;;;;;;5200481;27;20063;-65
2022/02/25 06:36:40;;;;;;;19.23;17.33;;;;;;;;;;5200919;27;20093;-65
2022/02/25 06:39:06;;;;;;;20.95;18.75;;;;;;;;;;5200409;27;20065;-65
2022/02/25 06:41:35;;;;;;;20.08;18.02;;;;;;;;;;5181145;27;20480;-65
2022/02/25 06:44:01;;;;;;;23.05;19.80;;;;;;;;;;5200488;27;20069;-65
2022/02/25 06:46:27;;;;;;;24.37;19.83;;;;;;;;;;5200444;27;20165;-65
2022/02/25 06:48:54;;;;;;;25.08;21.33;;;;;;;;;;5200718;27;20515;-64
2022/02/25 06:51:20;;;;;;;29.87;21.25;;;;;;;;;;5181456;27;20188;-65
2022/02/25 06:53:46;;;;;;;31.30;21.67;;;;;;;;;;5200458;27;20078;-65
2022/02/25 06:56:13;;;;;;;30.02;23.25;;;;;;;;;;5181215;27;20065;-64
2022/02/25 06:58:39;;;;;;;32.63;25.55;;;;;;;;;;5181481;27;20108;-64
2022/02/25 07:01:06;;;;;;;32.42;25.02;;;;;;;;;;5200156;27;20152;-64
2022/02/25 07:03:33;;;;;;;35.65;25.77;;;;;;;;;;5181545;27;20089;-62
2022/02/25 07:05:59;;;;;;;35.90;24.50;;;;;;;;;;5200204;27;20081;-63
2022/02/25 07:08:26;;;;;;;29.23;22.85;;;;;;;;;;5200385;27;20173;-63
2022/02/25 07:10:52;;;;;;;29.20;24.70;;;;;;;;;;5200732;27;20081;-64
2022/02/25 07:13:19;;;;;;;30.85;24.10;;;;;;;;;;5200714;27;20429;-62
2022/02/25 07:15:46;;;;;;;35.85;25.70;;;;;;;;;;5201579;27;20190;-62
2022/02/25 07:18:15;;;;;;;30.95;23.62;;;;;;;;;;5201809;27;20186;-62
2022/02/25 07:20:46;;;;;;;29.25;24.85;;;;;;;;;;5201432;27;20092;-62
2022/02/25 07:23:13;;;;;;;32.28;24.45;;;;;;;;;;5201700;27;20493;-62
2022/02/25 07:25:42;;;;;;;29.15;24.25;;;;;;;;;;5201816;27;20164;-62
2022/02/25 07:28:09;;;;;;;27.08;23.48;;;;;;;;;;5183045;27;20564;-63
2022/02/25 07:30:35;;;;;;;23.80;21.25;;;;;;;;;;5201929;27;20085;-62
2022/02/25 07:33:02;;;;;;;22.60;20.25;;;;;;;;;;5202002;27;20081;-62
2022/02/25 07:35:29;;;;;;;24.45;21.83;;;;;;;;;;5201315;27;20050;-62
2022/02/25 07:37:55;;;;;;;25.05;22.10;;;;;;;;;;5201408;27;20077;-62
2022/02/25 07:40:21;;;;;;;23.62;21.20;;;;;;;;;;5182158;27;20153;-62
2022/02/25 07:42:47;;;;;;;24.10;21.48;;;;;;;;;;5200960;27;20097;-62
2022/02/25 07:45:14;;;;;;;22.58;19.37;;;;;;;;;;5199010;27;20082;-63
2022/02/25 07:47:42;;;;;;;23.75;21.02;;;;;;;;;;5201582;27;20080;-63
2022/02/25 07:50:10;;;;;;;22.40;18.92;;;;;;;;;;5201826;27;20074;-62
2022/02/25 07:52:36;;;;;;;22.30;19.95;;;;;;;;;;5201603;27;20105;-62
2022/02/25 07:55:02;;;;;;;21.90;19.60;;;;;;;;;;5201211;27;20170;-61
2022/02/25 07:57:28;;;;;;;22.42;20.00;;;;;;;;;;5201528;27;20101;-63
2022/02/25 07:59:55;;;;;;;20.85;18.60;;;;;;;;;;5201432;27;20480;-61
2022/02/25 08:02:21;;;;;;;20.20;18.08;;;;;;;;;;5201596;27;20207;-59
2022/02/25 08:04:47;;;;;;;21.25;18.98;;;;;;;;;;5201335;27;20101;-60
2022/02/25 08:07:15;;;;;;;20.37;18.27;;;;;;;;;;5201509;27;20093;-64
2022/02/25 08:09:41;;;;;;;20.10;17.42;;;;;;;;;;5201291;27;20152;-63
2022/02/25 08:12:08;;;;;;;20.35;18.15;;;;;;;;;;5201431;27;20510;-63
2022/02/25 08:14:37;;;;;;;20.75;18.55;;;;;;;;;;5201517;27;20084;-63
2022/02/25 08:17:05;;;;;;;20.00;18.02;;;;;;;;;;5201317;27;20191;-64
2022/02/25 08:19:31;;;;;;;18.98;17.12;;;;;;;;;;5201242;27;20394;-64
2022/02/25 08:21:57;;;;;;;18.42;16.62;;;;;;;;;;5182054;27;20089;-63
2022/02/25 08:24:24;;;;;;;20.20;17.37;;;;;;;;;;5201157;27;20165;-63
2022/02/25 08:26:50;;;;;;;18.27;16.50;;;;;;;;;;5201111;27;20077;-61
2022/02/25 08:29:17;;;;;;;19.33;17.42;;;;;;;;;;5201521;27;20412;-63
2022/02/25 08:31:45;;;;;;;19.45;17.37;;;;;;;;;;5201251;27;20109;-65
2022/02/25 08:34:11;;;;;;;17.40;15.80;;;;;;;;;;5182185;27;20094;-65
2022/02/25 08:36:37;;;;;;;17.17;15.48;;;;;;;;;;5201517;27;20066;-64
2022/02/25 08:39:04;;;;;;;18.98;16.98;;;;;;;;;;5201115;27;20190;-63
2022/02/25 08:41:30;;;;;;;23.08;20.58;;;;;;;;;;5200875;27;20070;-63
2022/02/25 08:43:56;;;;;;;29.02;21.33;;;;;;;;;;5201132;27;20172;-64
2022/02/25 08:46:23;;;;;;;24.55;20.98;;;;;;;;;;5180087;27;20332;-64
2022/02/25 08:48:49;;;;;;;27.52;23.42;;;;;;;;;;5200992;27;20555;-64
2022/02/25 08:51:16;;;;;;;28.02;22.13;;;;;;;;;;5182043;27;20082;-64
2022/02/25 08:53:42;;;;;;;29.58;21.75;;;;;;;;;;5200439;27;20507;-64
2022/02/25 08:56:09;;;;;;;26.92;22.08;;;;;;;;;;5200831;27;20535;-65
2022/02/25 08:58:35;;;;;;;27.62;21.40;;;;;;;;;;5201151;27;20088;-63
2022/02/25 09:01:01;;;;;;;28.77;22.20;;;;;;;;;;5201072;27;20074;-63
2022/02/25 09:03:29;;;;;;;24.52;19.90;;;;;;;;;;5182162;27;20183;-63
2022/02/25 09:05:56;;;;;;;24.12;19.98;;;;;;;;;;5200864;27;20156;-63
2022/02/25 09:08:24;;;;;;;21.48;19.20;;;;;;;;;;5201351;27;20058;-63
2022/02/25 09:10:52;;;;;;;21.20;18.62;;;;;;;;;;5201320;27;20093;-63
2022/02/25 09:13:19;;;;;;;20.08;17.27;;;;;;;;;;5181959;27;20203;-63
2022/02/25 09:15:45;;;;;;;20.55;16.62;;;;;;;;;;5201341;27;20096;-64
2022/02/25 09:18:11;;;;;;;15.60;14.00;;;;;;;;;;5181955;27;20621;-63
2022/02/25 09:20:38;;;;;;;15.32;13.80;;;;;;;;;;5200825;27;20097;-64
2022/02/25 09:23:05;;;;;;;16.00;14.35;;;;;;;;;;5201195;27;20066;-63
2022/02/25 09:25:31;;;;;;;15.70;13.52;;;;;;;;;;5201182;27;20178;-63
2022/02/25 09:27:59;;;;;;;15.70;13.88;;;;;;;;;;5200902;27;20065;-63
2022/02/25 09:30:27;;;;;;;15.00;13.40;;;;;;;;;;5200699;27;20150;-64
2022/02/25 09:32:54;;;;;;;18.27;15.10;;;;;;;;;;5201277;27;20550;-63
2022/02/25 09:35:20;;;;;;;15.63;14.02;;;;;;;;;;5200784;27;20487;-63
2022/02/25 09:37:47;;;;;;;15.48;13.77;;;;;;;;;;5200837;27;20111;-63
2022/02/25 09:40:15;;;;;;;15.52;14.02;;;;;;;;;;5200490;27;20105;-63
2022/02/25 09:42:43;;;;;;;14.98;13.38;;;;;;;;;;5201177;27;20078;-62
2022/02/25 09:45:13;;;;;;;16.90;14.80;;;;;;;;;;5181771;27;20073;-65
2022/02/25 09:47:40;;;;;;;14.93;13.30;;;;;;;;;;5200976;27;20600;-65
2022/02/25 09:50:14;;;;;;;13.75;12.32;;;;;;;;;;5201094;27;20397;-69
2022/02/25 09:52:41;;;;;;;14.73;13.20;;;;;;;;;;5200900;27;20082;-64
2022/02/25 09:55:28;;;;;;;14.02;12.52;;;;;;;;;;5165256;27;20170;-64
2022/02/25 09:57:55;;;;;;;16.55;13.55;;;;;;;;;;5164418;27;20081;-64
2022/02/25 10:00:21;;;;;;;13.77;12.25;;;;;;;;;;5181171;27;20081;-64
2022/02/25 10:02:50;;;;;;;14.45;12.32;;;;;;;;;;5201212;27;20089;-65
2022/02/25 10:05:20;;;;;;;14.65;13.07;;;;;;;;;;5200696;27;20691;-65
2022/02/25 10:07:47;;;;;;;14.23;12.35;;;;;;;;;;5200745;27;20088;-65
2022/02/25 10:10:15;;;;;;;15.18;13.57;;;;;;;;;;5200405;27;20082;-65
2022/02/25 10:12:46;;;;;;;13.38;11.90;;;;;;;;;;5200615;27;20081;-66
2022/02/25 10:15:14;;;;;;;15.00;13.48;;;;;;;;;;5200797;27;20077;-69
2022/02/25 10:17:42;;;;;;;13.75;12.20;;;;;;;;;;5200659;27;20157;-68
2022/02/25 10:20:15;;;;;;;13.40;12.00;;;;;;;;;;5200536;27;20085;-64
2022/02/25 10:22:44;;;;;;;15.30;12.15;;;;;;;;;;5181444;27;20061;-62
2022/02/25 10:25:11;;;;;;;15.75;11.73;;;;;;;;;;5200347;27;20097;-64
2022/02/25 10:27:41;;;;;;;13.98;12.57;;;;;;;;;;5181107;27;20100;-64
2022/02/25 10:30:18;;;;;;;11.85;10.60;;;;;;;;;;5180971;27;20462;-64
2022/02/25 10:32:47;;;;;;;13.55;11.20;;;;;;;;;;5200547;27;20177;-63
2022/02/25 10:35:24;;;;;;;12.73;10.65;;;;;;;;;;5181319;27;20125;-65
2022/02/25 10:37:56;;;;;;;12.70;11.23;;;;;;;;;;5200738;27;20088;-65
2022/02/25 10:40:23;;;;;;;12.23;10.85;;;;;;;;;;5200409;27;20077;-65
2022/02/25 10:42:49;;;;;;;12.88;11.52;;;;;;;;;;5200559;27;20063;-65
2022/02/25 10:45:27;;;;;;;12.55;11.25;;;;;;;;;;5200658;27;20070;-65
2022/02/25 10:47:58;;;;;;;11.52;10.18;;;;;;;;;;5200285;27;20104;-63
2022/02/25 10:50:26;;;;;;;11.75;10.55;;;;;;;;;;5200393;27;20078;-62
2022/02/25 10:52:53;;;;;;;11.88;10.55;;;;;;;;;;5164249;27;20504;-64
2022/02/25 10:55:28;;;;;;;12.50;11.23;;;;;;;;;;5181387;27;20405;-63
2022/02/25 10:57:57;;;;;;;13.07;10.68;;;;;;;;;;5181375;27;20375;-64
2022/02/25 11:00:24;;;;;;;12.52;10.90;;;;;;;;;;5180729;27;20074;-63
2022/02/25 11:02:52;;;;;;;14.20;10.98;;;;;;;;;;5200554;27;20070;-65
2022/02/25 11:05:19;;;;;;;13.35;11.65;;;;;;;;;;5200443;27;20501;-71
2022/02/25 11:07:50;;;;;;;12.85;11.55;;;;;;;;;;5181019;27;20488;-77
2022/02/25 11:10:22;;;;;;;12.35;10.65;;;;;;;;;;5181006;27;20085;-64
2022/02/25 11:12:52;;;;;;;12.88;10.40;;;;;;;;;;5181917;27;20535;-63
2022/02/25 11:15:21;;;;;;;11.43;10.00;;;;;;;;;;5181095;27;20088;-64
2022/02/25 11:17:48;;;;;;;13.77;12.27;;;;;;;;;;5200179;27;20171;-63
2022/02/25 11:20:54;;;;;;;14.13;12.32;;;;;;;;;;5160912;27;20666;-64
2022/02/25 11:23:21;;;;;;;15.05;13.07;;;;;;;;;;5200252;27;20078;-65
2022/02/25 11:25:48;;;;;;;17.70;13.82;;;;;;;;;;5200373;27;20169;-64
2022/02/25 11:28:15;;;;;;;18.20;15.43;;;;;;;;;;5191662;27;20145;-64
2022/02/25 11:31:00;;;;;;;23.62;17.77;;;;;;;;;;5181029;27;20069;-64
2022/02/25 11:33:27;;;;;;;18.00;15.10;;;;;;;;;;5200646;27;20174;-63
2022/02/25 11:35:58;;;;;;;18.35;15.40;;;;;;;;;;5181174;27;20642;-63
2022/02/25 11:38:34;;;;;;;22.52;18.98;;;;;;;;;;5200017;27;20163;-62
2022/02/25 11:41:14;;;;;;;21.62;18.48;;;;;;;;;;5200241;27;20081;-63
2022/02/25 11:44:01;;;;;;;21.85;18.10;;;;;;;;;;5200294;27;20069;-64
2022/02/25 11:46:27;;;;;;;21.00;18.48;;;;;;;;;;5181164;27;20433;-64
2022/02/25 11:49:14;;;;;;;22.02;19.62;;;;;;;;;;5200460;27;20093;-64
2022/02/25 11:51:44;;;;;;;20.58;16.40;;;;;;;;;;5200094;27;20069;-63
2022/02/25 11:54:28;;;;;;;17.80;15.80;;;;;;;;;;5199985;27;20093;-63
2022/02/25 11:56:59;;;;;;;26.50;22.40;;;;;;;;;;5200137;27;20464;-63
2022/02/25 11:59:31;;;;;;;33.15;28.30;;;;;;;;;;5199968;27;20074;-64
2022/02/25 12:02:08;;;;;;;23.05;20.12;;;;;;;;;;5200955;27;20115;-63
2022/02/25 12:04:39;;;;;;;54.38;42.58;;;;;;;;;;5201520;27;20122;-63
2022/02/25 12:07:11;;;;;;;26.77;22.23;;;;;;;;;;5201158;27;20068;-64
2022/02/25 12:09:40;;;;;;;26.35;23.23;;;;;;;;;;5201252;27;20445;-63
2022/02/25 12:12:26;;;;;;;24.05;21.37;;;;;;;;;;5201147;27;20575;-63
2022/02/25 12:15:04;;;;;;;24.58;21.75;;;;;;;;;;5201539;27;20236;-64
2022/02/25 12:17:41;;;;;;;25.10;21.25;;;;;;;;;;5201493;27;20148;-63
2022/02/25 12:20:11;;;;;;;25.52;20.00;;;;;;;;;;5200923;27;20081;-64
2022/02/25 12:23:01;;;;;;;28.00;21.58;;;;;;;;;;5201205;27;20533;-64
2022/02/25 12:25:42;;;;;;;26.95;22.98;;;;;;;;;;5201490;27;20162;-64
2022/02/25 12:28:10;;;;;;;30.62;22.95;;;;;;;;;;5201108;27;20097;-64
2022/02/25 12:30:42;;;;;;;29.20;24.80;;;;;;;;;;5201064;27;20080;-64
2022/02/25 12:33:26;;;;;;;29.05;22.52;;;;;;;;;;5201182;27;20085;-63
2022/02/25 12:35:56;;;;;;;27.45;21.98;;;;;;;;;;5201227;27;20104;-63
2022/02/25 12:38:26;;;;;;;28.00;21.85;;;;;;;;;;5201127;27;20089;-63
2022/02/25 12:40:53;;;;;;;26.90;22.08;;;;;;;;;;5200380;27;20151;-63
2022/02/25 12:43:20;;;;;;;25.67;22.02;;;;;;;;;;5181761;27;20429;-65
2022/02/25 12:45:47;;;;;;;25.90;21.20;;;;;;;;;;5201208;27;20588;-65
2022/02/25 12:48:13;;;;;;;24.30;20.37;;;;;;;;;;5201018;27;20089;-65
2022/02/25 12:50:41;;;;;;;26.12;20.90;;;;;;;;;;5200891;27;20081;-65
2022/02/25 12:53:07;;;;;;;23.87;20.25;;;;;;;;;;5200716;27;20064;-65
2022/02/25 12:55:33;;;;;;;27.02;21.20;;;;;;;;;;5200927;27;20178;-65
2022/02/25 12:57:59;;;;;;;26.55;19.73;;;;;;;;;;5201088;27;20082;-65
2022/02/25 13:00:26;;;;;;;22.42;19.42;;;;;;;;;;5200750;27;20573;-65
2022/02/25 13:02:53;;;;;;;25.17;21.85;;;;;;;;;;5181863;27;20105;-65
2022/02/25 13:05:20;;;;;;;27.10;22.25;;;;;;;;;;5200772;27;20088;-64
2022/02/25 13:07:56;;;;;;;28.65;23.55;;;;;;;;;;5200876;27;20093;-65
2022/02/25 13:10:29;;;;;;;30.37;24.12;;;;;;;;;;5200749;27;20078;-66
2022/02/25 13:12:56;;;;;;;29.73;23.92;;;;;;;;;;5200795;27;20085;-65
2022/02/25 13:15:28;;;;;;;29.30;23.27;;;;;;;;;;5181655;27;20099;-65
2022/02/25 13:17:54;;;;;;;32.47;24.08;;;;;;;;;;5200729;27;20172;-66
2022/02/25 13:20:21;;;;;;;31.48;24.20;;;;;;;;;;5200536;27;20536;-63
2022/02/25 13:22:47;;;;;;;33.03;25.30;;;;;;;;;;5200137;27;20552;-63
2022/02/25 13:25:18;;;;;;;32.25;24.77;;;;;;;;;;5200045;27;20093;-64
2022/02/25 13:27:56;;;;;;;29.67;24.37;;;;;;;;;;5200543;27;20097;-63
2022/02/25 13:30:37;;;;;;;31.02;24.73;;;;;;;;;;5200907;27;20086;-63
2022/02/25 13:33:06;;;;;;;31.95;25.37;;;;;;;;;;5201177;27;20081;-64
2022/02/25 13:35:37;;;;;;;32.28;24.08;;;;;;;;;;5200388;27;20179;-64
2022/02/25 13:38:14;;;;;;;31.30;23.20;;;;;;;;;;5200514;27;20169;-65
2022/02/25 13:40:39;;;;;;;30.20;23.08;;;;;;;;;;5182407;27;20472;-64
2022/02/25 13:43:30;;;;;;;30.85;22.83;;;;;;;;;;5200559;27;20112;-64
2022/02/25 13:46:20;;;;;;;31.35;24.42;;;;;;;;;;5200574;27;20080;-65
2022/02/25 13:55:09;;;;;;;30.35;22.80;;;;;;;;;;5181236;27;20085;-62
2022/02/25 13:57:37;;;;;;;30.37;24.23;;;;;;;;;;5193492;27;20109;-63
2022/02/25 14:00:08;;;;;;;28.52;22.85;;;;;;;;;;5200514;27;20183;-62
2022/02/25 14:02:39;;;;;;;25.40;20.35;;;;;;;;;;5200411;27;20204;-62
2022/02/25 14:05:13;;;;;;;27.17;20.73;;;;;;;;;;5200549;27;20073;-62
2022/02/25 14:07:51;;;;;;;27.60;21.05;;;;;;;;;;5163849;27;20062;-62
2022/02/25 14:10:28;;;;;;;33.13;25.27;;;;;;;;;;5200226;27;20488;-62
2022/02/25 14:12:57;;;;;;;29.30;23.08;;;;;;;;;;5200419;27;20083;-63
2022/02/25 14:15:25;;;;;;;27.95;21.65;;;;;;;;;;5200446;27;20069;-62
2022/02/25 14:17:53;;;;;;;23.75;19.12;;;;;;;;;;5200414;27;20091;-62
2022/02/25 14:20:21;;;;;;;23.08;18.80;;;;;;;;;;5200034;27;20077;-62
2022/02/25 14:23:01;;;;;;;22.42;18.50;;;;;;;;;;5180932;27;20086;-62
2022/02/25 14:25:49;;;;;;;22.10;17.65;;;;;;;;;;5200503;27;20102;-62
2022/02/25 14:28:28;;;;;;;24.73;20.65;;;;;;;;;;5200557;27;20077;-61
2022/02/25 14:30:57;;;;;;;22.13;18.15;;;;;;;;;;5181245;27;20086;-63
2022/02/25 14:33:28;;;;;;;22.15;16.90;;;;;;;;;;5181196;27;20108;-62
2022/02/25 14:36:09;;;;;;;17.80;15.50;;;;;;;;;;5200124;27;20074;-62
2022/02/25 14:38:37;;;;;;;20.77;16.67;;;;;;;;;;5200273;27;20161;-64
2022/02/25 14:41:04;;;;;;;21.60;17.20;;;;;;;;;;5200155;27;20062;-65
2022/02/25 14:43:30;;;;;;;21.20;15.85;;;;;;;;;;5200454;27;20078;-65
2022/02/25 14:45:56;;;;;;;21.50;16.52;;;;;;;;;;5200208;27;20089;-65
2022/02/25 14:48:22;;;;;;;21.58;15.82;;;;;;;;;;5200334;27;20085;-65
2022/02/25 14:50:48;;;;;;;19.40;14.52;;;;;;;;;;5200275;27;20484;-64
2022/02/25 14:53:16;;;;;;;23.10;17.27;;;;;;;;;;5200585;27;20073;-63
2022/02/25 14:55:42;;;;;;;17.75;15.52;;;;;;;;;;5180837;27;20092;-63
2022/02/25 14:58:08;;;;;;;20.15;16.10;;;;;;;;;;5200402;27;20099;-63
2022/02/25 15:00:34;;;;;;;16.77;14.50;;;;;;;;;;5199814;27;20081;-64